createdAt,value
2023-08-21T00:00:14.379Z,7.15
2023-08-21T00:01:11.826Z,7.22
2023-08-21T00:02:09.211Z,7.35
2023-08-21T00:03:07.584Z,7.68
2023-08-21T00:04:05.196Z,7.35
2023-08-21T00:05:02.663Z,7.26
2023-08-21T00:06:00.064Z,7.39
2023-08-21T00:06:57.481Z,7.63
2023-08-21T00:07:54.865Z,7.37
2023-08-21T00:08:52.253Z,7.24
2023-08-21T00:09:49.860Z,7.81
2023-08-21T00:10:47.294Z,7.06
2023-08-21T00:11:44.661Z,7.61
2023-08-21T00:12:42.106Z,7.69
2023-08-21T00:13:39.460Z,7.62
2023-08-21T00:14:36.944Z,7.21
2023-08-21T00:15:34.314Z,7.61
2023-08-21T00:16:32.260Z,8.10
2023-08-21T00:17:29.737Z,7.14
2023-08-21T00:18:27.237Z,7.51
2023-08-21T00:19:24.618Z,7.19
2023-08-21T00:20:21.969Z,7.50
2023-08-21T00:21:19.960Z,7.60
2023-08-21T00:22:17.281Z,7.19
2023-08-21T00:23:14.735Z,7.58
2023-08-21T00:24:12.469Z,8.06
2023-08-21T00:25:09.789Z,7.72
2023-08-21T00:26:07.204Z,8.04
2023-08-21T00:27:04.956Z,8.05
2023-08-21T00:28:02.370Z,8.20
2023-08-21T00:28:59.775Z,7.57
2023-08-21T00:29:57.127Z,8.05
2023-08-21T00:31:01.446Z,7.57
2023-08-21T00:31:58.829Z,7.16
2023-08-21T00:32:56.259Z,7.58
2023-08-21T00:33:53.618Z,8.00
2023-08-21T00:34:50.966Z,7.73
2023-08-21T00:35:48.377Z,7.87
2023-08-21T00:36:45.757Z,7.86
2023-08-21T00:37:43.323Z,8.18
2023-08-21T00:38:41.321Z,7.90
2023-08-21T00:39:38.729Z,7.97
2023-08-21T00:40:36.164Z,7.78
2023-08-21T00:41:35.247Z,7.60
2023-08-21T00:42:32.770Z,7.94
2023-08-21T00:43:30.183Z,7.30
2023-08-21T00:44:27.608Z,8.19
2023-08-21T00:45:25.082Z,7.79
2023-08-21T00:46:22.883Z,7.78
2023-08-21T00:47:20.792Z,8.05
2023-08-21T00:48:18.866Z,7.37
2023-08-21T00:49:16.439Z,7.50
2023-08-21T00:50:13.996Z,8.18
2023-08-21T00:51:13.802Z,8.39
2023-08-21T00:52:13.734Z,7.91
2023-08-21T00:53:11.881Z,7.27
2023-08-21T00:54:09.417Z,7.67
2023-08-21T00:55:07.650Z,7.75
2023-08-21T00:56:05.178Z,8.01
2023-08-21T00:57:02.719Z,7.69
2023-08-21T00:58:01.574Z,7.84
2023-08-21T00:58:59.320Z,8.27
2023-08-21T00:59:56.811Z,8.10
2023-08-21T01:00:54.985Z,7.74
2023-08-21T01:01:52.754Z,7.99
2023-08-21T01:02:50.192Z,7.67
2023-08-21T01:03:47.629Z,7.85
2023-08-21T01:04:45.130Z,7.41
2023-08-21T01:05:42.722Z,7.89
2023-08-21T01:06:40.165Z,7.91
2023-08-21T01:07:45.863Z,7.94
2023-08-21T01:09:01.224Z,7.60
2023-08-21T01:10:10.603Z,8.31
2023-08-21T01:11:13.776Z,7.96
2023-08-21T01:12:23.977Z,7.71
2023-08-21T01:13:33.492Z,8.40
2023-08-21T01:14:49.586Z,8.37
2023-08-21T01:15:49.021Z,7.79
2023-08-21T01:16:48.782Z,7.83
2023-08-21T01:17:47.336Z,8.09
2023-08-21T01:18:46.493Z,8.02
2023-08-21T01:19:45.066Z,7.95
2023-08-21T01:20:42.876Z,7.67
2023-08-21T01:21:40.640Z,8.24
2023-08-21T01:22:39.869Z,8.05
2023-08-21T01:23:38.297Z,8.37
2023-08-21T01:24:36.143Z,8.36
2023-08-21T01:25:33.889Z,8.05
2023-08-21T01:26:31.329Z,7.46
2023-08-21T01:27:28.954Z,7.79
2023-08-21T01:28:26.716Z,7.88
2023-08-21T01:29:24.676Z,7.69
2023-08-21T01:30:22.086Z,7.77
2023-08-21T01:31:32.614Z,8.22
2023-08-21T01:33:08.609Z,7.52
2023-08-21T01:34:09.360Z,8.30
2023-08-21T01:35:08.535Z,7.71
2023-08-21T01:36:06.359Z,8.27
2023-08-21T01:37:04.910Z,8.59
2023-08-21T01:38:03.205Z,8.05
2023-08-21T01:39:00.955Z,7.85
2023-08-21T01:40:01.186Z,7.61
2023-08-21T01:40:59.735Z,7.58
2023-08-21T01:41:58.421Z,8.13
2023-08-21T01:42:56.226Z,7.51
2023-08-21T01:43:53.626Z,7.73
2023-08-21T01:44:51.008Z,8.35
2023-08-21T01:45:48.524Z,9.03
2023-08-21T01:46:45.918Z,8.13
2023-08-21T01:47:43.541Z,8.45
2023-08-21T01:48:40.988Z,8.21
2023-08-21T01:49:38.411Z,7.96
2023-08-21T01:50:35.876Z,8.46
2023-08-21T01:51:33.333Z,8.39
2023-08-21T01:52:30.745Z,8.26
2023-08-21T01:53:28.101Z,8.53
2023-08-21T01:54:25.525Z,8.18
2023-08-21T01:55:22.904Z,8.37
2023-08-21T01:56:20.278Z,8.05
2023-08-21T01:57:17.647Z,8.18
2023-08-21T01:58:14.983Z,8.02
2023-08-21T01:59:12.405Z,7.95
2023-08-21T02:00:10.052Z,8.00
2023-08-21T02:01:07.443Z,7.31
2023-08-21T02:02:04.951Z,8.44
2023-08-21T02:03:02.528Z,7.80
2023-08-21T02:04:00.053Z,8.04
2023-08-21T02:04:57.442Z,7.93
2023-08-21T02:05:58.204Z,8.02
2023-08-21T02:06:55.730Z,8.04
2023-08-21T02:07:53.463Z,7.94
2023-08-21T02:08:50.825Z,8.11
2023-08-21T02:09:48.181Z,7.86
2023-08-21T02:10:52.259Z,8.41
2023-08-21T02:11:49.679Z,8.23
2023-08-21T02:12:47.181Z,7.88
2023-08-21T02:13:44.605Z,8.21
2023-08-21T02:14:42.033Z,8.36
2023-08-21T02:15:39.847Z,8.06
2023-08-21T02:16:37.249Z,7.87
2023-08-21T02:17:34.743Z,8.17
2023-08-21T02:18:32.191Z,8.40
2023-08-21T02:19:29.663Z,7.96
2023-08-21T02:20:27.136Z,8.05
2023-08-21T02:21:24.724Z,8.24
2023-08-21T02:22:22.510Z,8.02
2023-08-21T02:23:19.900Z,8.56
2023-08-21T02:24:17.507Z,8.22
2023-08-21T02:25:15.119Z,7.99
2023-08-21T02:26:12.576Z,8.68
2023-08-21T02:27:10.166Z,8.58
2023-08-21T02:28:07.749Z,8.25
2023-08-21T02:29:05.177Z,7.80
2023-08-21T02:30:02.642Z,7.93
2023-08-21T02:31:00.081Z,8.40
2023-08-21T02:31:57.532Z,8.84
2023-08-21T02:32:55.599Z,8.50
2023-08-21T02:33:53.114Z,8.14
2023-08-21T02:34:50.674Z,8.14
2023-08-21T02:35:48.045Z,8.44
2023-08-21T02:36:45.467Z,8.75
2023-08-21T02:37:42.836Z,8.41
2023-08-21T02:38:40.232Z,8.73
2023-08-21T02:39:37.716Z,8.43
2023-08-21T02:40:35.180Z,8.22
2023-08-21T02:41:32.691Z,8.73
2023-08-21T02:42:30.165Z,8.50
2023-08-21T02:43:27.542Z,8.86
2023-08-21T02:44:24.953Z,8.70
2023-08-21T02:45:22.361Z,7.99
2023-08-21T02:46:19.768Z,8.01
2023-08-21T02:47:17.204Z,8.55
2023-08-21T02:48:14.653Z,8.31
2023-08-21T02:49:12.043Z,8.81
2023-08-21T02:50:10.218Z,8.43
2023-08-21T02:51:07.600Z,8.16
2023-08-21T02:52:05.023Z,8.23
2023-08-21T02:53:02.480Z,8.68
2023-08-21T02:53:59.871Z,8.37
2023-08-21T02:54:57.309Z,8.64
2023-08-21T02:55:54.665Z,8.98
2023-08-21T02:56:52.138Z,8.00
2023-08-21T02:57:49.686Z,8.66
2023-08-21T02:58:47.038Z,8.25
2023-08-21T02:59:44.370Z,8.88
2023-08-21T03:00:41.854Z,8.13
2023-08-21T03:01:39.286Z,8.40
2023-08-21T03:02:37.084Z,8.00
2023-08-21T03:03:36.967Z,8.27
2023-08-21T03:04:34.422Z,8.38
2023-08-21T03:05:31.852Z,8.82
2023-08-21T03:06:29.268Z,8.95
2023-08-21T03:07:26.712Z,8.87
2023-08-21T03:08:24.052Z,8.81
2023-08-21T03:09:21.446Z,8.63
2023-08-21T03:10:18.788Z,8.63
2023-08-21T03:11:16.197Z,8.42
2023-08-21T03:12:13.557Z,7.90
2023-08-21T03:13:10.886Z,7.98
2023-08-21T03:14:09.220Z,8.60
2023-08-21T03:15:07.116Z,8.50
2023-08-21T03:16:04.718Z,8.07
2023-08-21T03:17:02.132Z,8.26
2023-08-21T03:18:00.534Z,8.12
2023-08-21T03:18:59.551Z,8.11
2023-08-21T03:19:56.975Z,8.52
2023-08-21T03:20:54.383Z,8.60
2023-08-21T03:21:52.628Z,8.52
2023-08-21T03:22:50.041Z,8.38
2023-08-21T03:23:47.457Z,8.16
2023-08-21T03:24:44.839Z,8.78
2023-08-21T03:25:42.237Z,8.25
2023-08-21T03:26:39.689Z,8.84
2023-08-21T03:27:41.019Z,8.83
2023-08-21T03:28:38.441Z,8.78
2023-08-21T03:29:35.862Z,8.39
2023-08-21T03:30:33.381Z,8.73
2023-08-21T03:31:31.496Z,8.60
2023-08-21T03:32:29.014Z,8.53
2023-08-21T03:33:26.468Z,8.34
2023-08-21T03:34:24.043Z,8.43
2023-08-21T03:35:21.411Z,8.11
2023-08-21T03:36:18.958Z,8.34
2023-08-21T03:37:16.398Z,8.53
2023-08-21T03:38:13.799Z,8.31
2023-08-21T03:39:11.289Z,8.03
2023-08-21T03:40:09.051Z,8.05
2023-08-21T03:41:06.508Z,8.51
2023-08-21T03:42:04.239Z,9.07
2023-08-21T03:43:01.672Z,8.29
2023-08-21T03:43:59.371Z,8.55
2023-08-21T03:44:56.734Z,8.23
2023-08-21T03:45:54.086Z,8.53
2023-08-21T03:46:51.644Z,8.58
2023-08-21T03:47:48.969Z,8.98
2023-08-21T03:48:46.608Z,9.19
2023-08-21T03:49:44.010Z,8.77
2023-08-21T03:50:41.387Z,8.41
2023-08-21T03:51:38.796Z,8.59
2023-08-21T03:52:36.598Z,8.35
2023-08-21T03:53:34.877Z,8.10
2023-08-21T03:54:32.228Z,8.30
2023-08-21T03:55:29.590Z,8.12
2023-08-21T03:56:26.990Z,8.67
2023-08-21T03:57:24.417Z,8.94
2023-08-21T03:58:21.841Z,9.43
2023-08-21T03:59:19.205Z,9.01
2023-08-21T04:00:17.343Z,8.72
2023-08-21T04:01:14.878Z,8.77
2023-08-21T04:02:12.293Z,8.42
2023-08-21T04:03:09.713Z,9.16
2023-08-21T04:04:07.170Z,8.04
2023-08-21T04:05:04.704Z,9.02
2023-08-21T04:06:02.428Z,8.24
2023-08-21T04:06:59.918Z,8.00
2023-08-21T04:07:57.294Z,7.98
2023-08-21T04:08:54.683Z,8.58
2023-08-21T04:09:52.046Z,8.72
2023-08-21T04:10:49.520Z,8.36
2023-08-21T04:11:46.869Z,8.28
2023-08-21T04:12:44.205Z,8.67
2023-08-21T04:13:41.555Z,8.30
2023-08-21T04:14:38.879Z,8.43
2023-08-21T04:15:36.383Z,8.80
2023-08-21T04:16:33.793Z,8.85
2023-08-21T04:17:31.182Z,8.81
2023-08-21T04:18:40.143Z,9.01
2023-08-21T04:19:41.983Z,8.70
2023-08-21T04:20:39.557Z,8.19
2023-08-21T04:21:37.034Z,8.60
2023-08-21T04:22:34.460Z,8.36
2023-08-21T04:23:31.775Z,8.80
2023-08-21T04:24:29.214Z,9.04
2023-08-21T04:25:26.545Z,8.97
2023-08-21T04:26:23.920Z,8.90
2023-08-21T04:27:21.261Z,8.79
2023-08-21T04:28:18.766Z,9.19
2023-08-21T04:29:16.140Z,9.32
2023-08-21T04:30:13.738Z,9.61
2023-08-21T04:31:11.141Z,8.76
2023-08-21T04:32:08.623Z,9.05
2023-08-21T04:33:06.646Z,9.36
2023-08-21T04:34:05.124Z,8.77
2023-08-21T04:35:02.753Z,8.85
2023-08-21T04:36:00.478Z,8.93
2023-08-21T04:36:57.842Z,9.19
2023-08-21T04:37:55.226Z,9.19
2023-08-21T04:38:52.632Z,9.03
2023-08-21T04:39:56.119Z,9.62
2023-08-21T04:40:53.566Z,8.95
2023-08-21T04:41:51.166Z,9.05
2023-08-21T04:42:48.997Z,9.22
2023-08-21T04:43:46.404Z,9.29
2023-08-21T04:44:43.784Z,9.09
2023-08-21T04:45:47.897Z,9.79
2023-08-21T04:46:49.447Z,9.33
2023-08-21T04:47:46.862Z,9.96
2023-08-21T04:48:44.317Z,9.81
2023-08-21T04:49:41.739Z,9.18
2023-08-21T04:50:39.108Z,9.13
2023-08-21T04:51:36.546Z,9.68
2023-08-21T04:52:34.036Z,9.56
2023-08-21T04:53:31.543Z,9.79
2023-08-21T04:54:28.932Z,9.55
2023-08-21T04:55:26.320Z,9.26
2023-08-21T04:56:23.798Z,10.20
2023-08-21T04:57:22.316Z,9.97
2023-08-21T04:58:19.749Z,10.39
2023-08-21T04:59:17.116Z,9.82
2023-08-21T05:00:14.673Z,10.06
2023-08-21T05:01:12.098Z,9.74
2023-08-21T05:02:09.498Z,9.63
2023-08-21T05:03:07.361Z,9.35
2023-08-21T05:04:04.867Z,9.28
2023-08-21T05:05:02.267Z,9.57
2023-08-21T05:05:59.843Z,9.71
2023-08-21T05:06:57.334Z,10.04
2023-08-21T05:07:54.760Z,10.12
2023-08-21T05:08:52.167Z,9.92
2023-08-21T05:09:49.547Z,10.08
2023-08-21T05:10:47.093Z,10.15
2023-08-21T05:11:44.603Z,9.90
2023-08-21T05:12:42.142Z,9.68
2023-08-21T05:13:39.547Z,10.30
2023-08-21T05:14:37.847Z,10.24
2023-08-21T05:15:35.445Z,9.98
2023-08-21T05:16:33.117Z,9.82
2023-08-21T05:17:31.962Z,9.68
2023-08-21T05:18:29.946Z,9.68
2023-08-21T05:19:28.967Z,10.65
2023-08-21T05:20:26.596Z,10.48
2023-08-21T05:21:23.982Z,9.94
2023-08-21T05:22:21.447Z,9.71
2023-08-21T05:23:18.815Z,9.72
2023-08-21T05:24:16.204Z,9.93
2023-08-21T05:25:13.659Z,10.32
2023-08-21T05:26:11.035Z,10.79
2023-08-21T05:27:08.526Z,9.62
2023-08-21T05:28:06.541Z,10.42
2023-08-21T05:29:04.222Z,9.37
2023-08-21T05:30:01.608Z,9.34
2023-08-21T05:30:59.670Z,11.68
2023-08-21T05:31:57.092Z,10.68
2023-08-21T05:32:54.462Z,9.94
2023-08-21T05:33:51.828Z,9.93
2023-08-21T05:34:49.293Z,10.07
2023-08-21T05:35:46.744Z,9.76
2023-08-21T05:36:44.125Z,9.65
2023-08-21T05:37:41.541Z,9.85
2023-08-21T05:38:38.955Z,10.10
2023-08-21T05:39:36.358Z,9.32
2023-08-21T05:40:33.794Z,9.49
2023-08-21T05:41:31.209Z,9.91
2023-08-21T05:42:28.598Z,10.01
2023-08-21T05:43:26.044Z,10.15
2023-08-21T05:44:23.409Z,9.74
2023-08-21T05:45:20.806Z,9.25
2023-08-21T05:46:18.349Z,9.43
2023-08-21T05:47:15.837Z,9.74
2023-08-21T05:48:13.264Z,9.78
2023-08-21T05:49:10.825Z,9.78
2023-08-21T05:50:08.425Z,9.23
2023-08-21T05:51:06.477Z,9.92
2023-08-21T05:52:04.029Z,9.46
2023-08-21T05:53:02.898Z,9.28
2023-08-21T05:54:00.442Z,10.45
2023-08-21T05:54:57.915Z,9.43
2023-08-21T05:55:55.463Z,9.22
2023-08-21T05:56:52.874Z,9.72
2023-08-21T05:57:50.263Z,9.92
2023-08-21T05:58:47.672Z,9.48
2023-08-21T05:59:48.303Z,9.32
2023-08-21T06:00:45.781Z,9.97
2023-08-21T06:01:43.300Z,9.62
2023-08-21T06:02:41.103Z,9.89
2023-08-21T06:03:38.764Z,9.63
2023-08-21T06:04:36.279Z,8.99
2023-08-21T06:05:33.633Z,9.14
2023-08-21T06:06:31.079Z,9.10
2023-08-21T06:07:28.514Z,9.56
2023-08-21T06:08:25.914Z,9.46
2023-08-21T06:09:23.435Z,9.89
2023-08-21T06:10:20.930Z,9.38
2023-08-21T06:11:18.410Z,9.35
2023-08-21T06:12:16.664Z,9.02
2023-08-21T06:13:14.050Z,9.63
2023-08-21T06:14:11.526Z,9.19
2023-08-21T06:15:12.112Z,8.95
2023-08-21T06:16:09.599Z,8.68
2023-08-21T06:17:07.419Z,9.09
2023-08-21T06:18:05.354Z,9.70
2023-08-21T06:19:02.826Z,9.19
2023-08-21T06:20:00.753Z,9.47
2023-08-21T06:20:58.200Z,8.91
2023-08-21T06:21:58.874Z,9.45
2023-08-21T06:22:56.284Z,9.21
2023-08-21T06:23:53.692Z,9.41
2023-08-21T06:24:51.063Z,9.99
2023-08-21T06:25:49.059Z,9.45
2023-08-21T06:26:46.453Z,9.52
2023-08-21T06:27:56.079Z,9.65
2023-08-21T06:28:55.720Z,9.79
2023-08-21T06:29:53.186Z,9.17
2023-08-21T06:30:56.872Z,9.32
2023-08-21T06:31:54.274Z,9.91
2023-08-21T06:32:51.634Z,9.93
2023-08-21T06:33:49.132Z,9.66
2023-08-21T06:34:46.526Z,9.20
2023-08-21T06:35:43.987Z,9.32
2023-08-21T06:36:41.367Z,9.74
2023-08-21T06:37:38.722Z,9.52
2023-08-21T06:38:37.838Z,9.02
2023-08-21T06:39:35.621Z,9.14
2023-08-21T06:40:32.985Z,8.42
2023-08-21T06:41:30.506Z,8.91
2023-08-21T06:42:27.874Z,8.73
2023-08-21T06:43:25.859Z,9.53
2023-08-21T06:44:23.312Z,9.05
2023-08-21T06:45:20.678Z,9.04
2023-08-21T06:46:18.609Z,8.99
2023-08-21T06:47:15.980Z,9.75
2023-08-21T06:48:13.356Z,8.85
2023-08-21T06:49:10.789Z,9.05
2023-08-21T06:50:08.248Z,8.64
2023-08-21T06:51:05.781Z,9.59
2023-08-21T06:52:04.184Z,8.94
2023-08-21T06:53:01.615Z,9.34
2023-08-21T06:53:58.980Z,9.33
2023-08-21T06:54:56.325Z,9.25
2023-08-21T06:55:53.655Z,8.54
2023-08-21T06:56:51.038Z,9.09
2023-08-21T06:57:48.436Z,8.55
2023-08-21T06:58:45.833Z,8.50
2023-08-21T06:59:43.199Z,8.54
2023-08-21T07:00:40.583Z,8.71
2023-08-21T07:01:37.979Z,9.33
2023-08-21T07:02:35.534Z,9.07
2023-08-21T07:03:33.240Z,9.04
2023-08-21T07:04:31.076Z,9.27
2023-08-21T07:05:28.487Z,9.54
2023-08-21T07:06:26.075Z,9.05
2023-08-21T07:07:23.511Z,9.52
2023-08-21T07:08:20.844Z,9.54
2023-08-21T07:09:18.215Z,10.08
2023-08-21T07:10:15.992Z,9.67
2023-08-21T07:11:15.386Z,9.25
2023-08-21T07:12:14.365Z,9.64
2023-08-21T07:13:11.739Z,9.52
2023-08-21T07:14:09.303Z,9.67
2023-08-21T07:15:06.971Z,9.12
2023-08-21T07:16:06.173Z,9.73
2023-08-21T07:17:03.565Z,9.85
2023-08-21T07:18:01.016Z,9.45
2023-08-21T07:18:58.485Z,9.06
2023-08-21T07:19:55.945Z,9.46
2023-08-21T07:20:53.884Z,9.18
2023-08-21T07:21:51.222Z,9.43
2023-08-21T07:22:48.596Z,9.05
2023-08-21T07:23:46.001Z,9.10
2023-08-21T07:24:43.444Z,9.36
2023-08-21T07:25:40.859Z,9.25
2023-08-21T07:26:38.199Z,9.44
2023-08-21T07:27:35.628Z,9.62
2023-08-21T07:28:33.015Z,9.26
2023-08-21T07:29:30.775Z,8.90
2023-08-21T07:30:28.724Z,9.26
2023-08-21T07:31:26.386Z,8.97
2023-08-21T07:32:23.812Z,8.95
2023-08-21T07:33:21.260Z,9.26
2023-08-21T07:34:18.594Z,9.38
2023-08-21T07:35:16.417Z,8.60
2023-08-21T07:36:18.328Z,9.14
2023-08-21T07:37:15.918Z,9.15
2023-08-21T07:38:13.327Z,9.19
2023-08-21T07:39:10.682Z,8.82
2023-08-21T07:40:08.487Z,9.53
2023-08-21T07:41:11.057Z,9.29
2023-08-21T07:42:08.722Z,9.21
2023-08-21T07:43:06.154Z,9.45
2023-08-21T07:44:03.971Z,8.97
2023-08-21T07:45:01.412Z,9.43
2023-08-21T07:45:58.794Z,9.34
2023-08-21T07:46:56.206Z,9.36
2023-08-21T07:48:04.967Z,9.59
2023-08-21T07:49:10.480Z,9.69
2023-08-21T07:50:08.212Z,9.46
2023-08-21T07:51:05.562Z,9.58
2023-08-21T07:52:05.256Z,9.52
2023-08-21T07:53:02.750Z,9.73
2023-08-21T07:54:01.107Z,9.35
2023-08-21T07:55:00.323Z,9.59
2023-08-21T07:55:57.948Z,9.49
2023-08-21T07:56:55.380Z,9.24
2023-08-21T07:57:52.790Z,9.41
2023-08-21T07:58:50.214Z,9.55
2023-08-21T07:59:47.594Z,8.96
2023-08-21T08:00:45.019Z,9.29
2023-08-21T08:01:42.434Z,9.12
2023-08-21T08:02:40.160Z,9.71
2023-08-21T08:03:38.782Z,9.29
2023-08-21T08:04:36.241Z,9.57
2023-08-21T08:05:35.094Z,9.25
2023-08-21T08:06:33.222Z,9.77
2023-08-21T08:07:30.568Z,9.52
2023-08-21T08:08:28.003Z,9.14
2023-08-21T08:09:25.411Z,9.33
2023-08-21T08:10:22.768Z,9.82
2023-08-21T08:11:20.206Z,9.26
2023-08-21T08:12:17.574Z,9.85
2023-08-21T08:13:15.150Z,9.83
2023-08-21T08:14:12.483Z,9.84
2023-08-21T08:15:10.059Z,10.19
2023-08-21T08:16:07.690Z,9.32
2023-08-21T08:17:05.135Z,9.47
2023-08-21T08:18:03.749Z,9.51
2023-08-21T08:19:01.141Z,8.96
2023-08-21T08:19:58.467Z,8.95
2023-08-21T08:20:55.958Z,8.54
2023-08-21T08:21:53.447Z,9.53
2023-08-21T08:22:50.787Z,9.33
2023-08-21T08:23:48.175Z,8.69
2023-08-21T08:24:45.611Z,9.32
2023-08-21T08:25:43.090Z,9.00
2023-08-21T08:26:41.904Z,8.80
2023-08-21T08:27:39.248Z,9.05
2023-08-21T08:28:36.570Z,8.67
2023-08-21T08:29:33.928Z,8.53
2023-08-21T08:30:31.277Z,8.57
2023-08-21T08:31:28.869Z,8.20
2023-08-21T08:32:26.709Z,8.56
2023-08-21T08:33:24.151Z,8.64
2023-08-21T08:34:21.751Z,8.58
2023-08-21T08:35:19.259Z,9.11
2023-08-21T08:36:16.742Z,8.20
2023-08-21T08:37:14.187Z,8.63
2023-08-21T08:38:11.671Z,8.69
2023-08-21T08:39:09.230Z,8.85
2023-08-21T08:40:07.062Z,8.84
2023-08-21T08:41:08.486Z,8.49
2023-08-21T08:42:07.077Z,8.42
2023-08-21T08:43:06.430Z,8.52
2023-08-21T08:44:05.035Z,8.70
2023-08-21T08:45:04.444Z,8.72
2023-08-21T08:46:03.902Z,8.60
2023-08-21T08:47:01.865Z,8.64
2023-08-21T08:48:01.927Z,8.55
2023-08-21T08:49:01.257Z,8.87
2023-08-21T08:49:59.938Z,8.08
2023-08-21T08:50:59.193Z,8.20
2023-08-21T08:51:58.760Z,8.52
2023-08-21T08:53:06.448Z,8.88
2023-08-21T08:54:13.370Z,8.49
2023-08-21T08:55:11.515Z,8.21
2023-08-21T08:56:09.538Z,8.18
2023-08-21T08:57:06.978Z,8.03
2023-08-21T08:58:04.408Z,8.08
2023-08-21T08:59:01.799Z,8.45
2023-08-21T08:59:59.877Z,7.94
2023-08-21T09:00:57.330Z,8.89
2023-08-21T09:01:54.779Z,9.22
2023-08-21T09:02:53.040Z,8.91
2023-08-21T09:03:51.510Z,8.26
2023-08-21T09:04:51.304Z,8.45
2023-08-21T09:05:50.556Z,8.44
2023-08-21T09:06:47.936Z,7.85
2023-08-21T09:07:45.336Z,7.56
2023-08-21T09:08:55.831Z,8.17
2023-08-21T09:09:54.093Z,7.96
2023-08-21T09:10:51.778Z,7.56
2023-08-21T09:11:49.246Z,8.42
2023-08-21T09:12:47.668Z,7.66
2023-08-21T09:13:45.126Z,8.11
2023-08-21T09:14:44.063Z,8.50
2023-08-21T09:15:42.706Z,7.93
2023-08-21T09:16:59.963Z,7.78
2023-08-21T09:17:57.694Z,8.35
2023-08-21T09:18:57.768Z,8.43
2023-08-21T09:19:55.125Z,8.05
2023-08-21T09:20:52.510Z,7.87
2023-08-21T09:21:50.557Z,7.70
2023-08-21T09:22:54.284Z,7.49
2023-08-21T09:23:57.733Z,7.91
2023-08-21T09:25:05.885Z,7.24
2023-08-21T09:26:03.652Z,7.85
2023-08-21T09:27:02.538Z,7.72
2023-08-21T09:27:59.956Z,8.00
2023-08-21T09:29:00.294Z,7.37
2023-08-21T09:29:58.506Z,8.35
2023-08-21T09:30:56.122Z,8.08
2023-08-21T09:31:57.396Z,8.21
2023-08-21T09:33:01.206Z,7.70
2023-08-21T09:34:00.389Z,7.42
2023-08-21T09:34:57.884Z,7.53
2023-08-21T09:35:56.582Z,7.30
2023-08-21T09:36:56.619Z,7.20
2023-08-21T09:37:54.384Z,7.12
2023-08-21T09:38:53.433Z,7.08
2023-08-21T09:39:50.748Z,7.37
2023-08-21T09:40:52.373Z,7.13
2023-08-21T09:41:57.432Z,7.10
2023-08-21T09:42:58.644Z,6.89
2023-08-21T09:44:02.705Z,6.72
2023-08-21T09:45:03.959Z,6.49
2023-08-21T09:46:01.700Z,6.13
2023-08-21T09:46:59.078Z,6.09
2023-08-21T09:47:59.539Z,6.34
2023-08-21T09:48:57.187Z,6.32
2023-08-21T09:49:55.628Z,6.06
2023-08-21T09:50:53.078Z,6.38
2023-08-21T09:51:51.029Z,6.31
2023-08-21T09:52:49.306Z,6.48
2023-08-21T09:53:48.846Z,6.49
2023-08-21T09:54:46.506Z,6.37
2023-08-21T09:55:44.334Z,6.92
2023-08-21T09:56:43.055Z,6.59
2023-08-21T09:57:41.135Z,6.80
2023-08-21T09:58:38.712Z,7.12
2023-08-21T09:59:37.020Z,6.46
2023-08-21T10:00:36.013Z,6.88
2023-08-21T10:01:36.590Z,6.55
2023-08-21T10:02:35.657Z,6.76
2023-08-21T10:03:33.378Z,6.68
2023-08-21T10:04:33.165Z,6.86
2023-08-21T10:05:34.437Z,6.69
2023-08-21T10:06:32.297Z,6.63
2023-08-21T10:07:30.121Z,6.33
2023-08-21T10:08:28.681Z,6.94
2023-08-21T10:09:28.253Z,6.43
2023-08-21T10:10:26.158Z,6.69
2023-08-21T10:11:23.986Z,6.49
2023-08-21T10:12:25.529Z,6.88
2023-08-21T10:13:23.466Z,6.71
2023-08-21T10:14:22.857Z,6.56
2023-08-21T10:15:20.389Z,6.51
2023-08-21T10:16:18.448Z,6.59
2023-08-21T10:17:16.316Z,6.60
2023-08-21T10:18:30.517Z,6.87
2023-08-21T10:19:33.794Z,6.80
2023-08-21T10:20:31.159Z,6.61
2023-08-21T10:21:35.565Z,6.63
2023-08-21T10:22:46.381Z,6.71
2023-08-21T10:23:47.354Z,6.79
2023-08-21T10:24:46.790Z,6.70
2023-08-21T10:25:44.323Z,6.97
2023-08-21T10:26:41.838Z,6.80
2023-08-21T10:27:39.423Z,6.84
2023-08-21T10:28:53.284Z,7.01
2023-08-21T10:29:59.612Z,9.33
2023-08-21T10:30:57.774Z,6.64
2023-08-21T10:32:03.810Z,7.09
2023-08-21T10:33:01.411Z,6.85
2023-08-21T10:34:00.083Z,6.98
2023-08-21T10:34:57.390Z,7.21
2023-08-21T10:35:54.703Z,6.88
2023-08-21T10:37:00.918Z,6.36
2023-08-21T10:38:15.446Z,6.64
2023-08-21T10:39:16.364Z,6.46
2023-08-21T10:40:25.542Z,6.71
2023-08-21T10:41:27.223Z,6.94
2023-08-21T10:42:42.050Z,6.71
2023-08-21T10:43:41.628Z,6.47
2023-08-21T10:44:52.434Z,6.03
2023-08-21T10:45:54.827Z,6.66
2023-08-21T10:46:53.106Z,6.56
2023-08-21T10:47:51.821Z,6.99
2023-08-21T10:48:49.378Z,6.85
2023-08-21T10:49:47.838Z,6.81
2023-08-21T10:50:45.380Z,7.06
2023-08-21T10:51:44.602Z,6.29
2023-08-21T10:52:44.104Z,6.79
2023-08-21T10:53:44.006Z,7.06
2023-08-21T10:54:48.729Z,6.89
2023-08-21T10:55:53.654Z,6.89
2023-08-21T10:56:50.990Z,7.10
2023-08-21T10:57:50.273Z,7.31
2023-08-21T10:58:51.197Z,6.81
2023-08-21T11:00:08.602Z,7.09
2023-08-21T11:01:05.972Z,7.18
2023-08-21T11:02:04.493Z,7.11
2023-08-21T11:03:02.264Z,7.54
2023-08-21T11:04:01.372Z,6.70
2023-08-21T11:05:01.524Z,6.71
2023-08-21T11:06:19.965Z,7.36
2023-08-21T11:07:19.150Z,7.05
2023-08-21T11:08:19.209Z,6.98
2023-08-21T11:09:17.742Z,7.34
2023-08-21T11:10:19.254Z,6.75
2023-08-21T11:11:17.871Z,6.87
2023-08-21T11:12:22.631Z,7.37
2023-08-21T11:13:20.125Z,6.91
2023-08-21T11:14:17.479Z,7.12
2023-08-21T11:15:14.827Z,7.13
2023-08-21T11:16:12.214Z,7.07
2023-08-21T11:17:10.727Z,6.56
2023-08-21T11:18:08.150Z,6.51
2023-08-21T11:19:06.782Z,6.93
2023-08-21T11:20:05.761Z,6.89
2023-08-21T11:21:09.866Z,7.32
2023-08-21T11:22:07.602Z,7.22
2023-08-21T11:23:07.957Z,7.33
2023-08-21T11:24:05.532Z,7.22
2023-08-21T11:25:02.931Z,7.11
2023-08-21T11:26:07.009Z,7.11
2023-08-21T11:27:17.038Z,6.90
2023-08-21T11:28:17.602Z,6.64
2023-08-21T11:29:15.210Z,7.19
2023-08-21T11:30:12.918Z,6.86
2023-08-21T11:31:10.954Z,6.49
2023-08-21T11:32:11.099Z,6.66
2023-08-21T11:33:10.272Z,6.93
2023-08-21T11:34:22.087Z,7.06
2023-08-21T11:35:20.856Z,6.88
2023-08-21T11:36:18.916Z,6.68
2023-08-21T11:37:17.720Z,6.52
2023-08-21T11:38:18.892Z,6.76
2023-08-21T11:39:16.380Z,7.14
2023-08-21T11:40:14.293Z,6.85
2023-08-21T11:41:11.639Z,6.75
2023-08-21T11:42:17.893Z,6.80
2023-08-21T11:43:15.297Z,6.56
2023-08-21T11:44:12.674Z,7.09
2023-08-21T11:45:11.764Z,6.60
2023-08-21T11:46:15.038Z,7.02
2023-08-21T11:47:13.467Z,7.01
2023-08-21T11:48:10.847Z,6.93
2023-08-21T11:49:08.374Z,7.25
2023-08-21T11:50:07.239Z,7.44
2023-08-21T11:51:04.823Z,6.79
2023-08-21T11:52:02.193Z,7.19
2023-08-21T11:52:59.493Z,6.63
2023-08-21T11:53:56.844Z,6.99
2023-08-21T11:54:55.194Z,6.70
2023-08-21T11:55:52.573Z,6.14
2023-08-21T11:56:49.933Z,6.74
2023-08-21T11:57:48.369Z,6.58
2023-08-21T11:58:47.508Z,7.07
2023-08-21T11:59:50.785Z,6.83
2023-08-21T12:00:48.325Z,6.59
2023-08-21T12:01:51.388Z,6.84
2023-08-21T12:02:58.519Z,6.80
2023-08-21T12:03:56.919Z,6.74
2023-08-21T12:04:55.454Z,6.80
2023-08-21T12:05:52.886Z,7.09
2023-08-21T12:06:50.455Z,7.00
2023-08-21T12:07:48.556Z,6.94
2023-08-21T12:08:46.448Z,6.95
2023-08-21T12:09:48.377Z,7.09
2023-08-21T12:10:51.146Z,6.70
2023-08-21T12:11:48.481Z,7.02
2023-08-21T12:12:45.824Z,6.93
2023-08-21T12:13:43.247Z,7.44
2023-08-21T12:14:40.829Z,7.45
2023-08-21T12:15:38.238Z,7.09
2023-08-21T12:16:35.708Z,7.09
2023-08-21T12:17:33.120Z,7.38
2023-08-21T12:18:30.512Z,6.84
2023-08-21T12:19:28.460Z,7.16
2023-08-21T12:20:25.816Z,7.21
2023-08-21T12:21:23.256Z,7.00
2023-08-21T12:22:21.014Z,6.65
2023-08-21T12:23:18.366Z,6.73
2023-08-21T12:24:15.746Z,6.87
2023-08-21T12:25:14.538Z,6.55
2023-08-21T12:26:12.074Z,6.33
2023-08-21T12:27:09.504Z,6.03
2023-08-21T12:28:09.975Z,6.43
2023-08-21T12:29:07.741Z,6.61
2023-08-21T12:30:05.772Z,6.69
2023-08-21T12:31:03.203Z,6.81
2023-08-21T12:32:00.722Z,6.51
2023-08-21T12:33:06.325Z,6.74
2023-08-21T12:34:14.183Z,7.04
2023-08-21T12:35:13.402Z,6.46
2023-08-21T12:36:10.723Z,6.27
2023-08-21T12:37:08.146Z,6.55
2023-08-21T12:38:11.855Z,6.95
2023-08-21T12:39:10.042Z,6.43
2023-08-21T12:40:08.024Z,6.04
2023-08-21T12:41:05.410Z,6.35
2023-08-21T12:42:02.886Z,6.25
2023-08-21T12:43:00.230Z,6.52
2023-08-21T12:43:57.745Z,6.51
2023-08-21T12:44:55.144Z,6.88
2023-08-21T12:45:52.507Z,6.41
2023-08-21T12:46:49.975Z,6.36
2023-08-21T12:47:47.420Z,6.71
2023-08-21T12:48:44.893Z,6.96
2023-08-21T12:49:42.437Z,6.91
2023-08-21T12:50:39.968Z,6.81
2023-08-21T12:51:37.311Z,6.50
2023-08-21T12:52:34.663Z,6.98
2023-08-21T12:53:32.014Z,6.48
2023-08-21T12:54:29.468Z,6.78
2023-08-21T12:55:26.849Z,7.21
2023-08-21T12:56:24.271Z,6.88
2023-08-21T12:57:22.873Z,6.89
2023-08-21T12:58:20.300Z,7.06
2023-08-21T12:59:19.236Z,6.58